createdAt,value
2023-03-29T00:02:07.900Z,82.43
2023-03-29T00:04:35.502Z,82.66
2023-03-29T00:07:04.791Z,82.42
2023-03-29T00:09:36.056Z,82.46
2023-03-29T00:12:03.063Z,82.86
2023-03-29T00:14:31.101Z,83.08
2023-03-29T00:16:59.100Z,83.23
2023-03-29T00:19:26.389Z,83.11
2023-03-29T00:21:53.627Z,83.07
2023-03-29T00:24:21.550Z,83.30
2023-03-29T00:26:48.871Z,83.21
2023-03-29T00:29:16.151Z,83.50
2023-03-29T00:31:46.166Z,82.96
2023-03-29T00:34:13.144Z,83.38
2023-03-29T00:36:40.634Z,83.17
2023-03-29T00:39:07.629Z,83.22
2023-03-29T00:41:34.705Z,83.05
2023-03-29T00:44:04.155Z,83.01
2023-03-29T00:46:32.110Z,82.97
2023-03-29T00:49:07.289Z,82.81
2023-03-29T00:51:37.064Z,82.99
2023-03-29T00:54:14.920Z,82.70
2023-03-29T00:56:46.867Z,83.13
2023-03-29T00:59:18.820Z,82.65
2023-03-29T01:01:48.239Z,82.96
2023-03-29T01:04:19.913Z,83.43
2023-03-29T01:06:54.193Z,83.07
2023-03-29T01:09:24.189Z,82.88
2023-03-29T01:11:56.314Z,82.55
2023-03-29T01:14:38.159Z,82.45
2023-03-29T01:17:06.694Z,82.57
2023-03-29T01:19:42.347Z,82.55
2023-03-29T01:22:14.904Z,82.51
2023-03-29T01:24:45.437Z,82.66
2023-03-29T01:27:44.453Z,82.49
2023-03-29T01:30:52.503Z,82.56
2023-03-29T01:33:25.917Z,82.61
2023-03-29T01:35:58.010Z,82.23
2023-03-29T01:38:34.382Z,81.93
2023-03-29T01:41:03.389Z,82.12
2023-03-29T01:43:49.830Z,81.84
2023-03-29T01:46:40.045Z,81.82
2023-03-29T01:49:34.631Z,81.80
2023-03-29T01:52:30.505Z,81.60
2023-03-29T01:55:08.269Z,81.70
2023-03-29T01:57:38.916Z,81.81
2023-03-29T02:00:09.950Z,81.82
2023-03-29T02:02:43.401Z,81.76
2023-03-29T02:05:13.114Z,81.56
2023-03-29T02:07:43.690Z,81.54
2023-03-29T02:10:12.542Z,81.20
2023-03-29T02:12:39.882Z,81.02
2023-03-29T02:15:16.254Z,81.00
2023-03-29T02:17:44.420Z,81.07
2023-03-29T02:20:39.070Z,80.88
2023-03-29T02:23:28.000Z,80.61
2023-03-29T02:25:57.076Z,80.56
2023-03-29T02:28:27.320Z,80.84
2023-03-29T02:31:05.443Z,80.58
2023-03-29T02:33:53.152Z,80.47
2023-03-29T02:36:53.533Z,80.20
2023-03-29T02:39:23.074Z,80.16
2023-03-29T02:41:53.642Z,80.18
2023-03-29T02:44:25.497Z,80.29
2023-03-29T02:47:01.979Z,80.14
2023-03-29T02:49:29.325Z,79.97
2023-03-29T02:51:59.966Z,80.09
2023-03-29T02:54:30.012Z,80.32
2023-03-29T02:57:00.587Z,80.06
2023-03-29T02:59:29.997Z,79.67
2023-03-29T03:01:57.314Z,79.39
2023-03-29T03:04:26.111Z,79.32
2023-03-29T03:06:55.634Z,78.92
2023-03-29T03:09:22.806Z,78.98
2023-03-29T03:11:49.846Z,78.86
2023-03-29T03:14:18.842Z,78.82
2023-03-29T03:16:46.021Z,78.81
2023-03-29T03:19:13.434Z,79.11
2023-03-29T03:21:40.436Z,78.93
2023-03-29T03:24:07.777Z,78.57
2023-03-29T03:26:36.079Z,78.48
2023-03-29T03:29:06.975Z,78.35
2023-03-29T03:31:54.160Z,78.53
2023-03-29T03:34:39.594Z,78.18
2023-03-29T03:37:06.780Z,78.27
2023-03-29T03:39:37.104Z,77.99
2023-03-29T03:42:08.459Z,77.83
2023-03-29T03:44:40.696Z,77.42
2023-03-29T03:47:26.307Z,77.23
2023-03-29T03:49:55.810Z,77.46
2023-03-29T03:52:25.457Z,77.24
2023-03-29T03:54:53.213Z,77.41
2023-03-29T03:57:40.654Z,77.10
2023-03-29T04:00:19.458Z,77.31
2023-03-29T04:02:56.551Z,76.69
2023-03-29T04:05:24.090Z,76.77
2023-03-29T04:07:52.751Z,76.42
2023-03-29T04:10:42.664Z,76.25
2023-03-29T04:13:17.349Z,76.26
2023-03-29T04:16:05.046Z,75.51
2023-03-29T04:18:32.479Z,75.71
2023-03-29T04:21:00.774Z,75.45
2023-03-29T04:23:29.180Z,75.59
2023-03-29T04:25:56.957Z,75.04
2023-03-29T04:28:42.787Z,74.98
2023-03-29T04:31:19.663Z,75.07
2023-03-29T04:34:13.068Z,74.81
2023-03-29T04:36:40.967Z,74.76
2023-03-29T04:39:18.253Z,74.41
2023-03-29T04:41:50.427Z,74.26
2023-03-29T04:44:21.539Z,74.39
2023-03-29T04:46:48.814Z,74.18
2023-03-29T04:49:54.192Z,73.77
2023-03-29T04:53:02.565Z,73.17
2023-03-29T04:55:54.989Z,73.26
2023-03-29T04:58:46.985Z,73.20
2023-03-29T05:01:18.275Z,72.85
2023-03-29T05:03:53.407Z,72.92
2023-03-29T05:06:29.255Z,72.47
2023-03-29T05:08:56.271Z,72.37
2023-03-29T05:11:28.469Z,72.14
2023-03-29T05:13:58.596Z,71.55
2023-03-29T05:16:30.223Z,70.98
2023-03-29T05:18:59.019Z,71.41
2023-03-29T05:21:26.683Z,70.64
2023-03-29T05:23:54.796Z,70.77
2023-03-29T05:26:24.530Z,70.03
2023-03-29T05:28:54.350Z,69.90
2023-03-29T05:31:22.968Z,69.92
2023-03-29T05:33:54.045Z,69.35
2023-03-29T05:36:21.137Z,68.52
2023-03-29T05:38:50.086Z,68.79
2023-03-29T05:41:18.946Z,68.38
2023-03-29T05:44:06.696Z,68.54
2023-03-29T05:46:33.845Z,68.46
2023-03-29T05:49:04.521Z,68.51
2023-03-29T05:51:58.446Z,68.05
2023-03-29T05:54:27.321Z,68.17
2023-03-29T05:56:54.639Z,67.69
2023-03-29T05:59:23.590Z,67.97
2023-03-29T06:01:52.355Z,67.65
2023-03-29T06:04:21.539Z,66.96
2023-03-29T06:07:07.331Z,66.92
2023-03-29T06:09:35.444Z,66.58
2023-03-29T06:12:05.378Z,66.37
2023-03-29T06:15:04.286Z,66.56
2023-03-29T06:17:47.824Z,65.66
2023-03-29T06:20:17.278Z,65.67
2023-03-29T06:22:49.453Z,65.73
2023-03-29T06:25:17.709Z,65.23
2023-03-29T06:27:47.748Z,65.53
2023-03-29T06:30:19.452Z,65.78
2023-03-29T06:32:50.946Z,65.96
2023-03-29T06:35:46.346Z,66.10
2023-03-29T06:38:16.847Z,66.82
2023-03-29T06:41:07.618Z,67.54
2023-03-29T06:43:56.382Z,67.13
2023-03-29T06:46:29.399Z,67.70
2023-03-29T06:49:01.179Z,68.36
2023-03-29T06:51:42.806Z,68.22
2023-03-29T06:54:10.395Z,69.44
2023-03-29T06:56:42.873Z,70.65
2023-03-29T06:59:14.842Z,71.95
2023-03-29T07:01:57.989Z,72.71
2023-03-29T07:04:45.482Z,73.20
2023-03-29T07:08:00.329Z,73.99
2023-03-29T07:10:49.142Z,73.65
2023-03-29T07:13:28.331Z,73.09
2023-03-29T07:15:58.682Z,71.96
2023-03-29T07:18:44.885Z,71.45
2023-03-29T07:21:21.179Z,71.08
2023-03-29T07:23:48.253Z,71.51
2023-03-29T07:26:28.225Z,71.03
2023-03-29T07:28:56.425Z,70.59
2023-03-29T07:31:23.595Z,69.97
2023-03-29T07:33:56.499Z,69.59
2023-03-29T07:36:25.381Z,68.82
2023-03-29T07:38:56.902Z,68.67
2023-03-29T07:41:25.066Z,68.45
2023-03-29T07:44:05.110Z,68.26
2023-03-29T07:46:33.329Z,68.52
2023-03-29T07:49:00.405Z,68.96
2023-03-29T07:51:27.960Z,69.04
2023-03-29T07:54:03.297Z,68.44
2023-03-29T07:56:51.895Z,68.18
2023-03-29T07:59:23.747Z,67.73
2023-03-29T08:02:06.802Z,68.25
2023-03-29T08:04:44.172Z,68.27
2023-03-29T08:07:21.854Z,68.99
2023-03-29T08:10:15.789Z,69.11
2023-03-29T08:13:07.435Z,70.13
2023-03-29T08:15:50.348Z,70.32
2023-03-29T08:18:30.075Z,69.40
2023-03-29T08:20:58.321Z,69.60
2023-03-29T08:23:25.453Z,69.91
2023-03-29T08:26:11.594Z,70.40
2023-03-29T08:28:39.670Z,69.98
2023-03-29T08:31:09.879Z,70.80
2023-03-29T08:33:40.034Z,72.39
2023-03-29T08:36:33.318Z,74.59
2023-03-29T08:39:07.799Z,76.34
2023-03-29T08:41:57.680Z,77.81
2023-03-29T08:44:45.999Z,79.65
2023-03-29T08:47:22.085Z,79.34
2023-03-29T08:49:54.751Z,79.55
2023-03-29T08:52:34.075Z,79.71
2023-03-29T08:55:26.998Z,80.54
2023-03-29T08:58:19.537Z,81.47
2023-03-29T09:01:16.961Z,81.21
2023-03-29T09:04:16.578Z,81.64
2023-03-29T09:07:03.701Z,82.50
2023-03-29T09:09:38.776Z,82.76
2023-03-29T09:12:16.829Z,82.35
2023-03-29T09:15:10.993Z,83.30
2023-03-29T09:18:12.163Z,84.23
2023-03-29T09:20:53.949Z,86.70
2023-03-29T09:23:36.311Z,88.83
2023-03-29T09:26:47.754Z,91.06
2023-03-29T09:30:04.898Z,92.39
2023-03-29T09:32:54.246Z,93.70
2023-03-29T09:35:27.596Z,94.22
2023-03-29T09:37:56.074Z,95.32
2023-03-29T09:40:26.267Z,95.02
2023-03-29T09:43:11.146Z,95.48
2023-03-29T09:45:40.730Z,95.44
2023-03-29T09:48:15.618Z,95.69
2023-03-29T09:50:51.484Z,95.25
2023-03-29T09:53:21.617Z,95.44
2023-03-29T09:56:09.389Z,95.72
2023-03-29T09:58:46.606Z,95.49
2023-03-29T10:01:17.689Z,95.66
2023-03-29T10:03:54.266Z,96.06
2023-03-29T10:06:24.593Z,95.68
2023-03-29T10:08:59.448Z,95.81
2023-03-29T10:11:38.533Z,96.25
2023-03-29T10:14:12.604Z,96.38
2023-03-29T10:16:47.735Z,95.21
2023-03-29T10:19:27.599Z,96.05
2023-03-29T10:21:55.581Z,96.06
2023-03-29T10:24:25.939Z,96.01
2023-03-29T10:27:02.227Z,95.89
2023-03-29T10:29:36.956Z,95.87
2023-03-29T10:32:15.850Z,95.78
2023-03-29T10:34:43.858Z,95.48
2023-03-29T10:37:14.153Z,96.04
2023-03-29T10:39:41.438Z,96.44
2023-03-29T10:42:14.980Z,96.74
2023-03-29T10:44:42.289Z,97.46
2023-03-29T10:47:20.836Z,96.79
2023-03-29T10:49:57.387Z,97.14
2023-03-29T10:52:25.333Z,97.98
2023-03-29T10:54:54.953Z,98.00
2023-03-29T10:57:36.120Z,98.70
2023-03-29T11:00:14.367Z,98.57
2023-03-29T11:03:27.991Z,99.78
2023-03-29T11:06:14.318Z,100.00
2023-03-29T11:08:51.770Z,99.87
2023-03-29T11:11:24.721Z,100.00
2023-03-29T11:14:10.527Z,99.91
2023-03-29T11:16:45.541Z,99.99
2023-03-29T11:19:26.116Z,100.00
2023-03-29T11:22:14.008Z,99.58
2023-03-29T11:24:52.758Z,99.80
2023-03-29T11:27:28.836Z,100.00
2023-03-29T11:30:07.865Z,100.00
2023-03-29T11:32:44.500Z,100.00
2023-03-29T11:35:38.584Z,100.00
2023-03-29T11:38:13.909Z,100.00
2023-03-29T11:40:58.584Z,100.00
2023-03-29T11:44:07.037Z,100.00
2023-03-29T11:46:39.219Z,100.00
2023-03-29T11:49:09.243Z,100.00
2023-03-29T11:51:42.845Z,100.00
2023-03-29T11:54:24.000Z,100.00
2023-03-29T11:57:02.631Z,100.00
2023-03-29T11:59:37.851Z,100.00
2023-03-29T12:02:20.248Z,100.00
2023-03-29T12:04:52.369Z,100.00
2023-03-29T12:07:41.128Z,100.00
2023-03-29T12:10:17.540Z,100.00
2023-03-29T12:13:07.566Z,100.00
2023-03-29T12:15:42.697Z,100.00
2023-03-29T12:18:27.858Z,100.00
2023-03-29T12:21:09.676Z,100.00
2023-03-29T12:23:37.386Z,100.00
2023-03-29T12:26:28.917Z,100.00
2023-03-29T12:29:33.606Z,100.00
2023-03-29T12:32:04.138Z,100.00
2023-03-29T12:34:51.887Z,100.00
2023-03-29T12:37:40.402Z,100.00
2023-03-29T12:40:28.492Z,100.00
2023-03-29T12:43:25.091Z,100.00
2023-03-29T12:46:25.836Z,100.00
2023-03-29T12:49:07.797Z,100.00
2023-03-29T12:51:37.040Z,100.00
2023-03-29T12:54:13.497Z,100.00
2023-03-29T12:57:02.610Z,100.00
2023-03-29T12:59:40.222Z,100.00
2023-03-29T13:02:18.201Z,100.00
2023-03-29T13:04:56.053Z,100.00
2023-03-29T13:07:23.209Z,100.00
2023-03-29T13:10:03.566Z,100.00
2023-03-29T13:12:43.248Z,100.00
2023-03-29T13:15:19.357Z,100.00
2023-03-29T13:18:14.968Z,100.00
2023-03-29T13:20:47.947Z,100.00
2023-03-29T13:23:52.325Z,100.00
2023-03-29T13:26:47.293Z,100.00
2023-03-29T13:29:36.160Z,100.00
2023-03-29T13:32:36.728Z,100.00
2023-03-29T13:35:15.809Z,100.00
2023-03-29T13:37:55.165Z,100.00
2023-03-29T13:40:45.546Z,100.00
2023-03-29T13:43:21.846Z,100.00
2023-03-29T13:45:58.007Z,100.00
2023-03-29T13:48:49.491Z,99.83
2023-03-29T13:51:19.690Z,99.76
2023-03-29T13:54:06.255Z,99.63
2023-03-29T13:56:43.477Z,99.61
2023-03-29T13:59:19.372Z,99.04
2023-03-29T14:01:58.085Z,98.63
2023-03-29T14:04:30.622Z,99.35
2023-03-29T14:06:58.135Z,98.75
2023-03-29T14:09:31.853Z,98.50
2023-03-29T14:12:02.294Z,98.35
2023-03-29T14:14:32.882Z,98.53
2023-03-29T14:17:00.934Z,97.82
2023-03-29T14:19:36.640Z,98.13
2023-03-29T14:22:10.359Z,98.08
2023-03-29T14:24:48.374Z,97.92
2023-03-29T14:27:16.700Z,97.75
2023-03-29T14:29:51.656Z,97.86
2023-03-29T14:32:27.709Z,98.15
2023-03-29T14:34:54.729Z,97.35
2023-03-29T14:37:25.622Z,97.92
2023-03-29T14:39:53.457Z,98.06
2023-03-29T14:42:24.653Z,97.32
2023-03-29T14:44:57.233Z,98.03
2023-03-29T14:47:28.705Z,98.39
2023-03-29T14:50:00.780Z,98.64
2023-03-29T14:52:29.789Z,98.26
2023-03-29T14:55:00.141Z,98.30
2023-03-29T14:57:28.965Z,98.27
2023-03-29T15:00:01.594Z,98.15
2023-03-29T15:02:33.833Z,98.07
2023-03-29T15:05:04.791Z,98.08
2023-03-29T15:07:37.227Z,97.85
2023-03-29T15:10:06.665Z,97.82
2023-03-29T15:12:34.446Z,98.11
2023-03-29T15:15:02.820Z,97.65
2023-03-29T15:17:50.423Z,97.59
2023-03-29T15:20:28.132Z,97.49
2023-03-29T15:23:00.215Z,97.43
2023-03-29T15:25:33.130Z,97.50
2023-03-29T15:28:01.697Z,97.92
2023-03-29T15:30:36.132Z,97.28
2023-03-29T15:33:19.388Z,97.34
2023-03-29T15:35:50.545Z,97.58
2023-03-29T15:38:18.578Z,97.83
2023-03-29T15:40:46.799Z,97.65
2023-03-29T15:43:14.397Z,97.71
2023-03-29T15:45:41.462Z,97.93
2023-03-29T15:48:24.006Z,98.08
2023-03-29T15:50:51.814Z,98.33
2023-03-29T15:53:21.031Z,98.09
2023-03-29T15:55:52.361Z,98.06
2023-03-29T15:58:31.008Z,98.25
2023-03-29T16:01:12.604Z,98.36
2023-03-29T16:03:41.814Z,98.08
2023-03-29T16:06:12.490Z,97.91
2023-03-29T16:08:41.270Z,97.93
2023-03-29T16:11:16.263Z,98.25
2023-03-29T16:14:00.355Z,97.98
2023-03-29T16:16:38.280Z,97.68
2023-03-29T16:19:05.755Z,97.62
2023-03-29T16:21:39.711Z,97.51
2023-03-29T16:24:07.590Z,97.54
2023-03-29T16:26:34.890Z,97.42
2023-03-29T16:29:02.296Z,97.72
2023-03-29T16:31:47.928Z,97.53
2023-03-29T16:34:18.888Z,97.34
2023-03-29T16:36:55.368Z,97.17
2023-03-29T16:39:22.743Z,97.57
2023-03-29T16:42:03.750Z,97.59
2023-03-29T16:44:31.154Z,97.40
2023-03-29T16:46:58.778Z,96.84
2023-03-29T16:49:28.764Z,96.95
2023-03-29T16:52:00.116Z,97.01
2023-03-29T16:54:29.856Z,97.31
2023-03-29T16:56:59.841Z,97.65
2023-03-29T16:59:27.381Z,97.35
2023-03-29T17:01:54.973Z,97.14
2023-03-29T17:04:22.350Z,97.40
2023-03-29T17:06:49.492Z,97.66
2023-03-29T17:09:17.877Z,97.64
2023-03-29T17:11:47.527Z,97.26
2023-03-29T17:14:21.095Z,97.53
2023-03-29T17:17:00.900Z,96.98
2023-03-29T17:19:31.939Z,97.08
2023-03-29T17:21:59.110Z,97.02
2023-03-29T17:24:26.517Z,97.54
2023-03-29T17:27:05.139Z,97.07
2023-03-29T17:29:32.544Z,97.28
2023-03-29T17:31:59.886Z,97.57
2023-03-29T17:34:29.313Z,97.37
2023-03-29T17:36:56.776Z,97.32
2023-03-29T17:39:25.327Z,97.34
2023-03-29T17:41:56.148Z,97.87
2023-03-29T17:44:23.110Z,97.75
2023-03-29T17:46:50.423Z,98.07
2023-03-29T17:49:17.837Z,97.48
2023-03-29T17:51:46.371Z,97.92
2023-03-29T17:54:13.573Z,97.77
2023-03-29T17:56:41.015Z,97.93
2023-03-29T17:59:08.217Z,98.27
2023-03-29T18:01:37.030Z,97.65
2023-03-29T18:04:06.722Z,97.89
2023-03-29T18:06:33.949Z,98.15
2023-03-29T18:09:03.685Z,97.73
2023-03-29T18:11:33.554Z,97.58
2023-03-29T18:14:01.815Z,97.40
2023-03-29T18:16:29.463Z,97.35
2023-03-29T18:18:57.453Z,97.62
2023-03-29T18:21:26.598Z,97.54
2023-03-29T18:23:56.632Z,98.05
2023-03-29T18:26:26.109Z,97.69
2023-03-29T18:28:53.552Z,97.32
2023-03-29T18:31:33.081Z,97.66
2023-03-29T18:34:04.758Z,97.52
2023-03-29T18:36:32.736Z,97.52
2023-03-29T18:39:05.768Z,97.50
2023-03-29T18:41:37.512Z,98.09
2023-03-29T18:44:05.005Z,97.62
2023-03-29T18:46:33.401Z,98.08
2023-03-29T18:49:07.987Z,98.51
2023-03-29T18:51:35.769Z,98.57
2023-03-29T18:54:04.451Z,98.17
2023-03-29T18:56:32.230Z,97.80
2023-03-29T18:58:59.217Z,98.03
2023-03-29T19:01:26.831Z,97.81
2023-03-29T19:03:57.244Z,98.00
2023-03-29T19:06:25.100Z,98.37
2023-03-29T19:08:54.803Z,98.37
2023-03-29T19:11:27.710Z,98.47
2023-03-29T19:13:56.256Z,97.86
2023-03-29T19:16:23.828Z,98.30
2023-03-29T19:18:50.936Z,98.38
2023-03-29T19:21:18.461Z,98.43
2023-03-29T19:23:46.241Z,98.47
2023-03-29T19:26:15.142Z,98.70
2023-03-29T19:28:42.457Z,98.66
2023-03-29T19:31:09.667Z,98.80
2023-03-29T19:33:37.065Z,98.71
2023-03-29T19:36:04.591Z,99.06
2023-03-29T19:38:32.229Z,99.17
2023-03-29T19:40:59.342Z,99.23
2023-03-29T19:43:27.308Z,99.74
2023-03-29T19:45:57.617Z,100.00
2023-03-29T19:48:24.922Z,99.79
2023-03-29T19:50:52.162Z,100.00
2023-03-29T19:53:19.389Z,100.00
2023-03-29T19:55:46.398Z,100.00
2023-03-29T19:58:13.364Z,100.00
2023-03-29T20:00:41.853Z,100.00
2023-03-29T20:03:14.049Z,100.00
2023-03-29T20:05:41.253Z,100.00
2023-03-29T20:08:08.815Z,100.00
2023-03-29T20:10:36.580Z,100.00
2023-03-29T20:13:05.987Z,100.00
2023-03-29T20:15:38.674Z,100.00
2023-03-29T20:18:06.522Z,100.00
2023-03-29T20:20:35.949Z,100.00
2023-03-29T20:23:06.591Z,100.00
2023-03-29T20:25:35.800Z,100.00
2023-03-29T20:28:04.875Z,100.00
2023-03-29T20:30:31.921Z,100.00
2023-03-29T20:32:59.035Z,100.00
2023-03-29T20:35:26.193Z,100.00
2023-03-29T20:37:53.228Z,100.00
2023-03-29T20:40:20.910Z,100.00
2023-03-29T20:42:49.072Z,100.00
2023-03-29T20:45:19.322Z,100.00
2023-03-29T20:47:50.540Z,100.00
2023-03-29T20:50:19.317Z,100.00
2023-03-29T20:52:46.981Z,100.00
2023-03-29T20:55:22.264Z,100.00
2023-03-29T20:57:51.568Z,100.00
2023-03-29T21:00:19.990Z,100.00
2023-03-29T21:02:47.328Z,100.00
2023-03-29T21:05:14.474Z,100.00
2023-03-29T21:07:42.500Z,100.00
2023-03-29T21:10:11.492Z,100.00
2023-03-29T21:12:40.192Z,100.00
2023-03-29T21:15:08.884Z,100.00
2023-03-29T21:17:36.573Z,100.00
2023-03-29T21:20:08.423Z,100.00
2023-03-29T21:22:35.383Z,100.00
2023-03-29T21:25:02.420Z,100.00
2023-03-29T21:27:30.383Z,100.00
2023-03-29T21:29:57.335Z,100.00
2023-03-29T21:32:24.460Z,100.00
2023-03-29T21:34:51.404Z,100.00
2023-03-29T21:37:18.394Z,100.00
2023-03-29T21:39:45.563Z,100.00
2023-03-29T21:42:12.557Z,100.00
2023-03-29T21:44:39.540Z,100.00
2023-03-29T21:47:06.628Z,100.00
2023-03-29T21:49:33.543Z,100.00
2023-03-29T21:52:00.539Z,100.00
2023-03-29T21:54:30.481Z,100.00
2023-03-29T21:56:57.909Z,100.00
2023-03-29T21:59:25.421Z,100.00
2023-03-29T22:01:52.803Z,100.00
2023-03-29T22:04:33.658Z,100.00
2023-03-29T22:07:03.599Z,100.00
2023-03-29T22:09:32.676Z,100.00
2023-03-29T22:11:59.939Z,100.00
2023-03-29T22:14:29.478Z,100.00
2023-03-29T22:16:56.500Z,100.00
2023-03-29T22:19:23.503Z,100.00
2023-03-29T22:21:51.516Z,100.00
2023-03-29T22:24:23.228Z,100.00
2023-03-29T22:26:53.968Z,100.00
2023-03-29T22:29:32.589Z,100.00
2023-03-29T22:32:09.697Z,100.00
2023-03-29T22:34:41.312Z,100.00
2023-03-29T22:37:08.520Z,100.00
2023-03-29T22:39:36.906Z,100.00
2023-03-29T22:42:07.267Z,100.00
2023-03-29T22:44:34.363Z,100.00
2023-03-29T22:47:02.179Z,100.00
2023-03-29T22:49:29.236Z,100.00
2023-03-29T22:51:56.648Z,100.00
2023-03-29T22:54:26.774Z,100.00
2023-03-29T22:56:58.175Z,100.00
2023-03-29T22:59:25.934Z,100.00
2023-03-29T23:01:54.287Z,100.00
2023-03-29T23:04:22.783Z,100.00
2023-03-29T23:06:50.087Z,100.00
2023-03-29T23:09:17.692Z,100.00
2023-03-29T23:11:47.165Z,100.00
2023-03-29T23:14:15.736Z,100.00
2023-03-29T23:16:44.462Z,100.00
2023-03-29T23:19:18.758Z,100.00
2023-03-29T23:21:48.543Z,100.00
2023-03-29T23:24:19.238Z,100.00
2023-03-29T23:26:49.155Z,100.00
2023-03-29T23:29:16.114Z,100.00
2023-03-29T23:31:44.541Z,100.00
2023-03-29T23:34:13.535Z,100.00
2023-03-29T23:36:40.589Z,100.00
2023-03-29T23:39:08.160Z,100.00
2023-03-29T23:41:35.149Z,100.00
2023-03-29T23:44:03.819Z,100.00
2023-03-29T23:46:31.514Z,100.00
2023-03-29T23:48:59.049Z,100.00
2023-03-29T23:51:28.416Z,100.00
2023-03-29T23:53:56.558Z,100.00
2023-03-29T23:56:23.604Z,100.00
2023-03-29T23:58:51.158Z,100.00
